Time;durP1;ratioP1;P1;durP2;ratioP2;P2;SDS_P1;SDS_P2;PMS_P1;PMS_P2;Temp;Humidity;BMP_temperature;BMP_pressure;BME280_temperature;BME280_humidity;BME280_pressure;Samples;Min_cycle;Max_cycle;Signal;HPM_P1;HPM_P2
2023/01/06 04:50:43;;;;;;;7.88;1.15;;;14.20;75.00;;;;;;4864040;29;20080;-69
2023/01/06 04:53:12;;;;;;;4.60;1.30;;;14.30;75.10;;;;;;4863067;29;20053;-70
2023/01/06 04:55:38;;;;;;;5.25;1.30;;;14.30;74.80;;;;;;4865202;29;20389;-68
2023/01/06 04:58:04;;;;;;;5.22;0.90;;;14.30;74.40;;;;;;4864305;29;20077;-72
2023/01/06 05:00:30;;;;;;;5.75;2.00;;;14.30;74.10;;;;;;4866996;29;20042;-71
2023/01/06 05:02:56;;;;;;;4.65;1.50;;;14.30;73.80;;;;;;4865196;29;20048;-73
2023/01/06 05:05:21;;;;;;;4.93;1.80;;;14.30;73.70;;;;;;4865190;29;20128;-67
2023/01/06 05:07:47;;;;;;;3.22;1.25;;;14.30;73.60;;;;;;4867296;29;20453;-71
2023/01/06 05:10:13;;;;;;;4.32;1.30;;;14.30;73.40;;;;;;4864663;29;20045;-72
2023/01/06 05:12:38;;;;;;;4.15;1.10;;;14.30;73.20;;;;;;4865738;29;20098;-70
2023/01/06 05:15:05;;;;;;;2.50;0.90;;;14.20;73.00;;;;;;4865769;29;20528;-70
2023/01/06 05:17:31;;;;;;;1.20;0.70;;;14.20;72.90;;;;;;4865358;29;20050;-77
2023/01/06 05:19:56;;;;;;;2.08;0.75;;;14.20;72.90;;;;;;4865395;29;20056;-70
2023/01/06 05:22:22;;;;;;;1.75;0.85;;;14.20;72.90;;;;;;4865217;29;20159;-73
2023/01/06 05:24:48;;;;;;;3.70;0.93;;;14.20;73.00;;;;;;4854916;29;20038;-74
2023/01/06 05:27:17;;;;;;;2.20;0.98;;;14.20;73.20;;;;;;4863926;29;20060;-74
2023/01/06 05:29:42;;;;;;;2.85;0.90;;;14.20;73.90;;;;;;4865114;29;20049;-72
2023/01/06 05:32:08;;;;;;;2.70;0.80;;;14.20;74.10;;;;;;4865017;29;20082;-75
2023/01/06 05:34:34;;;;;;;3.00;1.10;;;14.30;73.90;;;;;;4865099;29;20037;-76
2023/01/06 05:37:00;;;;;;;3.35;0.75;;;14.40;73.40;;;;;;4864582;29;20053;-74
2023/01/06 05:39:25;;;;;;;4.53;1.10;;;14.50;73.80;;;;;;4865279;29;20041;-75
2023/01/06 05:41:51;;;;;;;4.70;1.02;;;14.50;73.80;;;;;;4863166;29;20064;-78
2023/01/06 05:45:17;;;;;;;10.05;1.42;;;14.60;73.90;;;;;;4859586;29;20041;-78
2023/01/06 05:47:43;;;;;;;9.98;1.65;;;14.80;74.40;;;;;;4862759;29;20365;-77
2023/01/06 05:50:09;;;;;;;9.20;1.15;;;14.90;74.60;;;;;;4894956;29;20140;-74
2023/01/06 05:52:35;;;;;;;13.45;1.60;;;15.00;74.80;;;;;;4901585;29;20452;-75
2023/01/06 05:55:00;;;;;;;8.48;1.67;;;15.00;74.80;;;;;;4885487;29;20061;-76
2023/01/06 05:57:26;;;;;;;7.60;1.40;;;15.10;75.00;;;;;;4902140;29;20053;-77
2023/01/06 05:59:52;;;;;;;11.32;1.10;;;15.10;75.30;;;;;;4885300;29;20044;-73
2023/01/06 06:02:17;;;;;;;12.10;1.40;;;15.20;75.40;;;;;;4901615;29;20127;-74
2023/01/06 06:04:45;;;;;;;16.52;1.70;;;15.20;75.50;;;;;;4901719;29;20053;-75
2023/01/06 06:07:11;;;;;;;13.93;1.60;;;15.30;75.70;;;;;;4902440;29;20064;-75
2023/01/06 06:09:36;;;;;;;7.80;1.33;;;15.30;76.00;;;;;;4902010;29;20371;-76
2023/01/06 06:12:02;;;;;;;9.82;1.10;;;15.40;76.10;;;;;;4901421;29;20045;-75
2023/01/06 06:14:28;;;;;;;14.55;2.08;;;15.50;76.20;;;;;;4900234;29;20111;-77
2023/01/06 06:16:55;;;;;;;15.70;1.50;;;15.60;76.00;;;;;;4901259;29;20052;-76
2023/01/06 06:19:23;;;;;;;14.45;2.00;;;15.70;75.80;;;;;;4901248;29;20120;-79
2023/01/06 06:21:49;;;;;;;12.05;1.20;;;15.80;75.60;;;;;;4885179;29;20048;-79
2023/01/06 06:24:15;;;;;;;7.78;1.27;;;15.90;75.30;;;;;;4900792;29;20039;-76
2023/01/06 06:26:40;;;;;;;5.55;0.80;;;16.00;75.30;;;;;;4884671;29;20048;-77
2023/01/06 06:29:07;;;;;;;10.02;1.52;;;16.00;75.00;;;;;;4901281;29;20055;-78
2023/01/06 06:31:37;;;;;;;20.63;1.50;;;16.10;74.80;;;;;;4901165;29;20053;-77
2023/01/06 06:34:03;;;;;;;9.02;1.40;;;16.20;74.90;;;;;;4869308;29;20405;-75
2023/01/06 06:36:30;;;;;;;7.72;1.30;;;16.20;74.70;;;;;;4901023;29;20124;-75
2023/01/06 06:38:56;;;;;;;12.65;1.10;;;16.30;74.40;;;;;;4884252;29;20055;-76
2023/01/06 06:41:23;;;;;;;10.70;1.58;;;16.20;74.40;;;;;;4901343;29;20041;-73
2023/01/06 06:43:49;;;;;;;10.00;1.38;;;16.30;74.50;;;;;;4900828;29;20413;-73
2023/01/06 06:46:16;;;;;;;6.45;1.05;;;16.30;74.60;;;;;;4900754;29;20131;-74
2023/01/06 06:48:42;;;;;;;6.78;1.10;;;16.30;74.60;;;;;;4900666;29;20072;-75
2023/01/06 06:51:11;;;;;;;8.10;0.70;;;16.40;74.70;;;;;;4875500;29;20350;-74
2023/01/06 06:53:37;;;;;;;6.38;1.20;;;16.40;74.60;;;;;;4884481;29;20060;-77
2023/01/06 06:56:05;;;;;;;8.77;1.10;;;16.40;74.70;;;;;;4899729;29;20056;-76
2023/01/06 06:58:31;;;;;;;8.25;1.48;;;16.30;74.60;;;;;;4899501;29;20143;-79
2023/01/06 07:00:57;;;;;;;8.57;1.10;;;16.30;74.50;;;;;;4900644;29;20032;-78
2023/01/06 07:03:24;;;;;;;11.27;1.42;;;16.30;74.50;;;;;;4884115;29;20040;-77
2023/01/06 07:05:51;;;;;;;14.55;1.30;;;16.30;74.60;;;;;;4900327;29;20421;-76
2023/01/06 07:08:17;;;;;;;7.72;1.08;;;16.30;74.70;;;;;;4900753;29;20053;-76
2023/01/06 07:10:43;;;;;;;10.98;1.55;;;16.20;74.30;;;;;;4900373;29;20156;-76
2023/01/06 07:13:09;;;;;;;10.05;1.55;;;16.20;74.60;;;;;;4883495;29;20052;-78
2023/01/06 07:15:35;;;;;;;10.73;1.50;;;16.20;74.70;;;;;;4899700;29;20048;-77
2023/01/06 07:18:10;;;;;;;6.82;1.10;;;16.20;74.80;;;;;;4900276;29;20068;-78
2023/01/06 07:20:36;;;;;;;7.95;0.90;;;16.20;74.90;;;;;;4900106;29;20059;-76
2023/01/06 07:23:03;;;;;;;17.55;2.05;;;16.20;75.00;;;;;;4900664;29;20044;-81
2023/01/06 07:25:29;;;;;;;8.98;1.08;;;16.20;74.80;;;;;;4899933;29;20048;-79
2023/01/06 07:27:56;;;;;;;12.82;1.45;;;16.20;74.60;;;;;;4884192;29;20131;-81
2023/01/06 07:30:23;;;;;;;5.63;1.00;;;16.20;74.70;;;;;;4899849;29;20036;-76
2023/01/06 07:32:49;;;;;;;9.82;1.50;;;16.20;74.60;;;;;;4900203;29;20106;-77
2023/01/06 07:35:15;;;;;;;6.80;1.55;;;16.20;74.30;;;;;;4899375;29;20093;-76
2023/01/06 07:37:41;;;;;;;10.35;1.45;;;16.20;73.00;;;;;;4900148;29;20045;-77
2023/01/06 07:40:07;;;;;;;7.07;1.33;;;16.10;72.10;;;;;;4900056;29;20040;-76
2023/01/06 07:42:35;;;;;;;9.93;1.13;;;16.10;71.40;;;;;;4899990;29;20045;-75
2023/01/06 07:45:01;;;;;;;11.07;1.50;;;16.10;70.70;;;;;;4899594;29;20052;-72
2023/01/06 07:47:27;;;;;;;9.25;1.30;;;16.00;70.10;;;;;;4899854;29;20049;-70
2023/01/06 07:49:52;;;;;;;6.90;0.93;;;16.00;70.10;;;;;;4899239;29;20393;-71
2023/01/06 07:52:18;;;;;;;7.47;0.88;;;15.70;70.50;;;;;;4899677;29;20097;-72
2023/01/06 07:54:44;;;;;;;6.18;0.90;;;15.40;71.20;;;;;;4899383;29;20470;-72
2023/01/06 07:57:09;;;;;;;14.23;1.90;;;15.20;71.90;;;;;;4899738;29;20055;-72
2023/01/06 07:59:35;;;;;;;9.93;2.05;;;15.10;72.50;;;;;;4899247;29;20056;-72
2023/01/06 08:02:01;;;;;;;6.55;0.90;;;15.00;72.90;;;;;;4899344;29;20075;-74
2023/01/06 08:04:27;;;;;;;12.13;2.10;;;14.90;73.00;;;;;;4899833;29;20108;-75
2023/01/06 08:06:52;;;;;;;13.65;1.77;;;14.80;73.30;;;;;;4899902;29;20059;-71
2023/01/06 08:09:18;;;;;;;8.85;1.42;;;14.80;73.60;;;;;;4902935;29;20045;-73
2023/01/06 08:11:44;;;;;;;9.23;1.20;;;14.70;73.80;;;;;;4903145;29;20044;-71
2023/01/06 08:14:12;;;;;;;10.45;1.65;;;14.70;73.80;;;;;;4903753;29;20054;-72
2023/01/06 08:16:39;;;;;;;10.35;2.03;;;14.70;73.90;;;;;;4903993;29;20044;-72
2023/01/06 08:19:05;;;;;;;9.43;1.30;;;14.70;73.90;;;;;;4903583;29;20052;-72
2023/01/06 08:21:31;;;;;;;8.55;1.65;;;14.70;73.90;;;;;;4903614;29;20060;-71
2023/01/06 08:23:56;;;;;;;6.22;1.35;;;14.70;73.90;;;;;;4903808;29;20136;-72
2023/01/06 08:26:22;;;;;;;5.82;1.50;;;14.60;73.90;;;;;;4903376;29;20079;-72
2023/01/06 08:28:48;;;;;;;9.20;1.15;;;14.60;74.10;;;;;;4903285;29;20045;-72
2023/01/06 08:31:16;;;;;;;4.57;1.17;;;14.60;74.20;;;;;;4887371;29;20057;-72
2023/01/06 08:33:42;;;;;;;6.63;1.00;;;14.50;74.20;;;;;;4903691;29;20045;-71
2023/01/06 08:36:11;;;;;;;6.53;1.65;;;14.60;74.30;;;;;;4903663;29;20114;-72
2023/01/06 08:38:37;;;;;;;8.70;1.50;;;14.50;74.20;;;;;;4902925;29;20049;-72
2023/01/06 08:41:03;;;;;;;11.15;1.83;;;14.50;74.00;;;;;;4902947;29;20187;-72
2023/01/06 08:43:28;;;;;;;8.60;2.10;;;14.60;71.90;;;;;;4903283;29;20076;-72
2023/01/06 08:46:06;;;;;;;8.70;1.42;;;14.60;69.80;;;;;;4902868;29;20097;-72
2023/01/06 08:48:33;;;;;;;11.65;2.10;;;14.60;68.50;;;;;;4902802;29;20148;-71
2023/01/06 08:51:08;;;;;;;8.82;2.00;;;14.50;68.20;;;;;;4902967;29;20135;-72
2023/01/06 08:53:33;;;;;;;8.45;1.60;;;14.50;67.70;;;;;;4902793;29;20096;-72
2023/01/06 08:55:59;;;;;;;9.63;1.45;;;14.40;67.40;;;;;;4902858;29;20091;-71
2023/01/06 08:58:25;;;;;;;12.40;2.28;;;14.40;67.00;;;;;;4902592;29;20056;-74
2023/01/06 09:00:51;;;;;;;15.20;2.15;;;14.30;67.10;;;;;;4886543;29;20052;-74
2023/01/06 09:03:17;;;;;;;9.48;1.25;;;14.30;67.20;;;;;;4902948;29;20044;-74
2023/01/06 09:05:43;;;;;;;8.40;2.17;;;14.20;67.50;;;;;;4902348;29;20444;-76
2023/01/06 09:08:09;;;;;;;11.77;2.15;;;14.20;68.40;;;;;;4902266;29;20124;-75
2023/01/06 09:10:38;;;;;;;7.05;1.50;;;14.20;68.80;;;;;;4885855;29;20067;-76
2023/01/06 09:13:04;;;;;;;11.70;2.03;;;14.30;68.90;;;;;;4884559;29;20467;-76
2023/01/06 09:15:30;;;;;;;7.65;1.27;;;14.40;69.00;;;;;;4885333;29;20044;-76
2023/01/06 09:17:56;;;;;;;7.45;1.50;;;14.60;69.10;;;;;;4902199;29;20076;-77
2023/01/06 09:20:22;;;;;;;6.03;0.98;;;14.80;69.00;;;;;;4901510;29;20091;-74
2023/01/06 09:22:47;;;;;;;9.43;1.73;;;15.00;68.80;;;;;;4902283;29;20131;-74
2023/01/06 09:25:13;;;;;;;7.57;1.20;;;15.30;68.50;;;;;;4902302;29;20048;-74
2023/01/06 09:27:39;;;;;;;5.03;1.25;;;15.40;68.40;;;;;;4901774;29;20143;-74
2023/01/06 09:30:06;;;;;;;8.68;1.73;;;15.50;68.50;;;;;;4902233;29;20393;-76
2023/01/06 09:32:32;;;;;;;5.10;1.50;;;15.60;68.50;;;;;;4885472;29;20052;-76
2023/01/06 09:34:58;;;;;;;6.43;1.38;;;15.60;68.50;;;;;;4901110;29;20063;-76
2023/01/06 09:37:24;;;;;;;12.45;1.50;;;15.70;68.60;;;;;;4902316;29;20088;-75
2023/01/06 09:39:49;;;;;;;9.18;1.30;;;15.70;68.60;;;;;;4885823;29;20051;-74
2023/01/06 09:42:18;;;;;;;18.65;1.42;;;15.70;68.60;;;;;;4901958;29;20365;-74
2023/01/06 09:44:57;;;;;;;7.00;1.30;;;15.70;68.60;;;;;;4902155;29;20048;-74
2023/01/06 09:47:38;;;;;;;7.57;1.20;;;15.70;68.70;;;;;;4885536;29;20048;-74
2023/01/06 09:50:20;;;;;;;10.77;2.00;;;15.80;68.80;;;;;;4901875;29;20061;-75
2023/01/06 09:52:54;;;;;;;10.10;1.10;;;15.80;68.90;;;;;;4901433;29;20049;-75
2023/01/06 09:55:41;;;;;;;13.98;1.73;;;15.80;69.00;;;;;;4901968;29;20125;-75
2023/01/06 09:58:27;;;;;;;5.60;1.42;;;15.80;69.20;;;;;;4885753;29;20261;-75
2023/01/06 10:00:55;;;;;;;9.55;1.38;;;15.80;69.20;;;;;;4900307;29;20123;-76
2023/01/06 10:03:25;;;;;;;7.97;1.48;;;15.90;69.40;;;;;;4899743;29;20055;-78
2023/01/06 10:06:00;;;;;;;5.13;0.95;;;15.90;69.30;;;;;;4900381;29;20128;-76
2023/01/06 10:08:37;;;;;;;6.07;1.15;;;16.00;69.10;;;;;;4901514;29;20060;-77
2023/01/06 10:11:25;;;;;;;11.70;1.17;;;16.20;69.00;;;;;;4885074;29;20064;-77
2023/01/06 10:14:02;;;;;;;9.23;1.00;;;16.30;68.90;;;;;;4901535;29;20395;-78
2023/01/06 10:16:46;;;;;;;5.78;0.73;;;16.40;68.50;;;;;;4901493;29;20053;-78
2023/01/06 10:19:18;;;;;;;;;;;16.50;68.40;;;;;;4901705;29;20049;-77
2023/01/06 10:21:47;;;;;;;6.68;1.08;;;16.50;68.40;;;;;;4866463;29;20343;-79
2023/01/06 10:24:26;;;;;;;6.70;1.27;;;16.60;68.40;;;;;;4882642;29;20052;-77
2023/01/06 10:27:07;;;;;;;5.72;1.10;;;16.60;68.30;;;;;;4881914;29;20132;-77
2023/01/06 10:29:36;;;;;;;3.28;0.70;;;16.70;68.20;;;;;;4866850;29;20124;-76
2023/01/06 10:32:04;;;;;;;5.65;1.05;;;16.70;68.20;;;;;;4899047;29;20345;-80
2023/01/06 10:34:33;;;;;;;4.18;1.17;;;16.70;67.80;;;;;;4901427;29;20356;-76
2023/01/06 10:37:15;;;;;;;6.25;0.93;;;16.70;67.30;;;;;;4884423;29;20111;-76
2023/01/06 10:39:44;;;;;;;7.57;1.27;;;16.70;67.10;;;;;;4900907;29;20052;-75
2023/01/06 10:45:18;;;;;;;4.75;1.20;;;16.60;67.10;;;;;;4901816;29;20338;-75
2023/01/06 10:47:44;;;;;;;7.10;1.20;;;16.60;67.30;;;;;;4900805;29;20048;-74
2023/01/06 10:50:15;;;;;;;4.68;1.13;;;16.60;67.30;;;;;;4900196;29;20068;-75
2023/01/06 10:52:44;;;;;;;5.75;1.33;;;16.60;67.30;;;;;;4882491;29;20139;-76
2023/01/06 10:55:52;;;;;;;3.60;1.15;;;16.60;67.40;;;;;;4900140;29;20064;-77
2023/01/06 10:58:42;;;;;;;6.05;1.60;;;16.60;67.30;;;;;;4869031;29;20452;-74
2023/01/06 11:01:26;;;;;;;8.20;1.00;;;16.60;67.60;;;;;;4900689;29;20074;-76
2023/01/06 11:04:12;;;;;;;10.05;1.70;;;16.60;67.60;;;;;;4900913;29;20040;-74
2023/01/06 11:07:01;;;;;;;5.13;1.40;;;16.50;67.80;;;;;;4868548;29;20059;-74
2023/01/06 11:09:41;;;;;;;6.55;1.13;;;16.50;67.90;;;;;;4883707;29;20037;-74
2023/01/06 11:12:16;;;;;;;5.65;1.13;;;16.50;67.80;;;;;;4900423;29;20456;-72
2023/01/06 11:14:42;;;;;;;8.57;1.27;;;16.50;67.90;;;;;;4900830;29;20071;-75
2023/01/06 11:17:14;;;;;;;8.60;1.70;;;16.60;68.00;;;;;;4900247;29;20468;-76
2023/01/06 11:19:44;;;;;;;12.10;1.27;;;16.50;67.70;;;;;;4899912;29;20044;-75
2023/01/06 11:22:33;;;;;;;12.77;1.83;;;16.50;67.70;;;;;;4900345;29;20048;-73
2023/01/06 11:25:01;;;;;;;12.90;2.17;;;16.50;67.50;;;;;;4900472;29;20167;-73
2023/01/06 11:27:27;;;;;;;13.93;2.00;;;16.50;67.40;;;;;;4900063;29;20051;-70
2023/01/06 11:29:53;;;;;;;17.17;2.78;;;16.30;67.60;;;;;;4899633;29;20084;-72
2023/01/06 11:32:26;;;;;;;15.48;2.25;;;16.40;67.80;;;;;;4900517;29;20152;-75
2023/01/06 11:35:04;;;;;;;19.00;2.58;;;16.40;67.90;;;;;;4899501;29;20044;-77
2023/01/06 11:37:35;;;;;;;12.23;2.00;;;16.50;68.20;;;;;;4899653;29;20464;-77
2023/01/06 11:40:18;;;;;;;19.65;1.98;;;16.50;68.40;;;;;;4883485;29;20137;-76
2023/01/06 11:42:48;;;;;;;11.23;1.90;;;16.50;68.50;;;;;;4899309;29;20516;-76
2023/01/06 11:45:48;;;;;;;13.82;2.65;;;16.50;68.50;;;;;;4900065;29;20040;-77
2023/01/06 11:48:19;;;;;;;12.75;1.63;;;16.60;68.60;;;;;;4900603;29;20135;-77
2023/01/06 11:51:06;;;;;;;12.25;2.40;;;16.60;68.60;;;;;;4899382;29;20052;-73
2023/01/06 11:53:35;;;;;;;16.23;2.45;;;16.60;68.80;;;;;;4899437;29;20044;-72
2023/01/06 11:56:03;;;;;;;18.05;2.70;;;16.60;68.60;;;;;;4899378;29;20064;-77
2023/01/06 11:58:28;;;;;;;13.98;1.63;;;16.50;68.80;;;;;;4899123;29;20120;-76
2023/01/06 12:01:20;;;;;;;10.88;1.90;;;16.50;69.40;;;;;;4899883;29;20088;-76
2023/01/06 12:03:52;;;;;;;14.90;2.83;;;16.50;68.80;;;;;;4898086;29;20116;-77
2023/01/06 12:06:34;;;;;;;12.02;1.85;;;16.50;68.90;;;;;;4899896;29;20364;-75
2023/01/06 12:09:21;;;;;;;12.10;1.88;;;16.50;68.80;;;;;;4899480;29;20054;-78
2023/01/06 12:11:52;;;;;;;9.18;1.48;;;16.50;68.80;;;;;;4883221;29;20101;-79
2023/01/06 12:14:24;;;;;;;12.30;1.58;;;16.40;68.80;;;;;;4897104;29;20048;-75
2023/01/06 12:17:30;;;;;;;19.33;2.80;;;16.40;68.80;;;;;;4899173;29;20116;-73
2023/01/06 12:20:20;;;;;;;20.02;2.47;;;16.40;68.80;;;;;;4898791;29;20472;-73
2023/01/06 12:22:57;;;;;;;15.73;2.67;;;16.40;69.00;;;;;;4897824;29;20049;-73
2023/01/06 12:25:31;;;;;;;9.98;1.77;;;16.40;69.00;;;;;;4897559;29;20148;-72
2023/01/06 12:28:08;;;;;;;11.52;2.05;;;16.40;68.90;;;;;;4880370;29;20053;-79
2023/01/06 12:30:56;;;;;;;7.75;1.55;;;16.40;68.40;;;;;;4899136;29;20111;-73
2023/01/06 12:33:34;;;;;;;11.52;1.98;;;16.40;67.60;;;;;;4900153;29;20055;-75
2023/01/06 12:36:08;;;;;;;13.32;1.33;;;16.40;67.60;;;;;;4899137;29;20099;-75
2023/01/06 12:38:53;;;;;;;14.35;2.05;;;16.40;67.50;;;;;;4899232;29;20372;-76
2023/01/06 12:41:36;;;;;;;8.30;1.23;;;16.30;67.50;;;;;;4901539;29;20079;-77
2023/01/06 12:44:35;;;;;;;12.77;1.83;;;16.40;67.70;;;;;;4899842;29;20427;-74
2023/01/06 12:47:04;;;;;;;12.10;2.00;;;16.40;67.80;;;;;;4895779;29;20365;-74
2023/01/06 12:49:40;;;;;;;8.40;1.88;;;16.50;67.90;;;;;;4899542;29;20429;-75
2023/01/06 12:52:20;;;;;;;14.15;1.52;;;16.50;67.90;;;;;;4898835;29;20060;-76
2023/01/06 12:54:52;;;;;;;9.57;2.78;;;16.50;67.90;;;;;;4900078;29;20048;-72
2023/01/06 12:57:39;;;;;;;10.80;2.08;;;16.50;67.90;;;;;;4902690;29;20052;-75
2023/01/06 13:00:29;;;;;;;12.57;2.38;;;16.50;67.90;;;;;;4883989;29;20052;-77
2023/01/06 13:03:24;;;;;;;16.58;2.17;;;16.50;67.90;;;;;;4867807;29;20060;-74
2023/01/06 13:05:59;;;;;;;15.35;2.10;;;16.60;67.80;;;;;;4896468;29;20048;-75
2023/01/06 13:08:52;;;;;;;12.93;3.45;;;16.50;67.80;;;;;;4905243;29;20356;-75
2023/01/06 13:11:44;;;;;;;9.50;1.98;;;16.50;67.80;;;;;;4907191;29;20380;-75
2023/01/06 13:14:29;;;;;;;5.20;1.38;;;16.60;67.80;;;;;;4886986;29;20048;-76
2023/01/06 13:17:05;;;;;;;10.82;1.70;;;16.60;67.90;;;;;;4902768;29;20044;-76
2023/01/06 13:19:51;;;;;;;7.70;1.77;;;16.50;67.90;;;;;;4901848;29;20484;-71
2023/01/06 13:22:31;;;;;;;7.28;1.63;;;16.50;67.90;;;;;;4902370;29;20456;-74
2023/01/06 13:25:29;;;;;;;12.38;1.48;;;16.50;67.90;;;;;;4886639;29;20115;-77
2023/01/06 13:28:18;;;;;;;6.60;1.15;;;16.50;67.90;;;;;;4870908;29;20106;-77
2023/01/06 13:31:24;;;;;;;9.43;1.40;;;16.50;67.90;;;;;;4902430;29;20074;-76
2023/01/06 13:34:02;;;;;;;6.72;1.67;;;16.50;67.90;;;;;;4902825;29;20368;-77
2023/01/06 13:36:46;;;;;;;8.95;1.25;;;16.50;67.90;;;;;;4886070;29;20052;-75
2023/01/06 13:39:18;;;;;;;6.72;1.50;;;16.50;67.90;;;;;;4902576;29;20061;-75
2023/01/06 13:41:47;;;;;;;7.00;1.90;;;16.50;67.90;;;;;;4901897;29;20195;-71
2023/01/06 13:44:21;;;;;;;7.65;1.65;;;16.50;67.80;;;;;;4901556;29;20076;-75
2023/01/06 13:46:50;;;;;;;5.88;1.25;;;16.50;67.90;;;;;;4911442;29;20080;-76
2023/01/06 13:49:18;;;;;;;9.27;1.35;;;16.50;67.90;;;;;;4910223;29;20059;-73
2023/01/06 13:51:44;;;;;;;9.45;1.45;;;16.50;67.90;;;;;;4911426;29;20452;-75
2023/01/06 13:54:38;;;;;;;8.57;1.27;;;16.50;67.90;;;;;;4895435;29;20049;-75
2023/01/06 13:57:19;;;;;;;10.70;2.30;;;16.50;67.80;;;;;;4911384;29;20180;-78
2023/01/06 13:59:51;;;;;;;11.25;2.22;;;16.50;68.00;;;;;;4919894;29;20124;-77
2023/01/06 14:02:41;;;;;;;13.90;2.83;;;16.50;68.00;;;;;;4921023;29;20051;-78
2023/01/06 14:05:36;;;;;;;14.75;2.30;;;16.50;68.10;;;;;;4904309;29;20056;-76
2023/01/06 14:08:14;;;;;;;11.18;1.40;;;16.50;68.20;;;;;;4894659;29;20139;-78
2023/01/06 14:10:42;;;;;;;13.18;2.30;;;16.50;68.10;;;;;;4911418;29;20419;-75
2023/01/06 14:13:22;;;;;;;14.82;1.55;;;16.50;68.00;;;;;;4904680;29;20466;-77
2023/01/06 14:16:12;;;;;;;12.07;1.80;;;16.50;67.90;;;;;;4901010;29;20064;-71
2023/01/06 14:18:43;;;;;;;11.60;1.25;;;16.50;68.00;;;;;;4901333;29;20124;-73
2023/01/06 14:21:11;;;;;;;11.63;2.50;;;16.40;67.90;;;;;;4901487;29;20107;-73
2023/01/06 14:23:49;;;;;;;10.50;2.20;;;16.40;67.90;;;;;;4901273;29;20056;-70
2023/01/06 14:26:15;;;;;;;15.88;2.15;;;16.40;67.80;;;;;;4901523;29;20368;-71
2023/01/06 14:28:41;;;;;;;12.20;1.58;;;16.40;67.50;;;;;;4901440;29;20090;-73
2023/01/06 14:31:25;;;;;;;9.68;1.95;;;16.40;67.00;;;;;;4884961;29;20048;-71
2023/01/06 14:34:02;;;;;;;14.90;1.95;;;16.40;63.90;;;;;;4900376;29;20056;-72
2023/01/06 14:36:32;;;;;;;15.77;2.38;;;16.20;65.50;;;;;;4900400;29;20452;-77
2023/01/06 14:39:01;;;;;;;13.35;1.95;;;16.20;65.70;;;;;;4900231;29;20044;-74
2023/01/06 14:41:48;;;;;;;15.38;2.53;;;16.30;65.70;;;;;;4900619;29;20197;-73
2023/01/06 14:44:23;;;;;;;9.57;1.48;;;16.20;65.80;;;;;;4873146;29;20056;-75
2023/01/06 14:47:05;;;;;;;13.20;2.15;;;16.30;65.80;;;;;;4881809;29;20464;-77
2023/01/06 14:49:36;;;;;;;8.68;1.63;;;16.30;65.80;;;;;;4881866;29;20065;-76
2023/01/06 14:52:09;;;;;;;11.43;2.00;;;16.40;66.00;;;;;;4865697;29;20052;-76
2023/01/06 14:54:43;;;;;;;11.68;2.22;;;16.40;66.10;;;;;;4895525;29;20052;-76
2023/01/06 14:57:24;;;;;;;8.40;1.92;;;16.40;66.20;;;;;;4882234;29;20132;-73
2023/01/06 15:00:13;;;;;;;10.50;1.90;;;16.50;66.30;;;;;;4886130;29;20128;-76
2023/01/06 15:02:51;;;;;;;14.43;2.22;;;16.50;66.50;;;;;;4891666;29;20502;-79
2023/01/06 15:05:23;;;;;;;13.00;2.00;;;16.50;66.60;;;;;;4885695;29;20123;-73
2023/01/06 15:08:03;;;;;;;9.80;2.17;;;16.50;66.80;;;;;;4900510;29;20045;-77
2023/01/06 15:11:09;;;;;;;7.65;1.58;;;16.50;66.90;;;;;;4907574;29;20067;-72
2023/01/06 15:13:35;;;;;;;14.02;3.45;;;16.50;67.00;;;;;;4902576;29;20161;-77
2023/01/06 15:16:04;;;;;;;15.45;5.38;;;16.50;67.40;;;;;;4919943;29;20477;-75
2023/01/06 15:18:31;;;;;;;17.42;4.78;;;16.40;68.20;;;;;;4913521;29;20040;-78
2023/01/06 15:20:58;;;;;;;17.63;7.20;;;16.40;68.60;;;;;;4900617;29;20483;-76
2023/01/06 15:23:24;;;;;;;18.85;5.90;;;16.40;69.70;;;;;;4901151;29;20048;-77
2023/01/06 15:25:52;;;;;;;16.85;6.25;;;16.40;70.50;;;;;;4900877;29;20132;-74
2023/01/06 15:28:25;;;;;;;18.92;5.85;;;16.40;70.90;;;;;;4900365;29;20048;-74
2023/01/06 15:30:51;;;;;;;14.25;4.43;;;16.40;72.80;;;;;;4900416;29;20052;-76
2023/01/06 15:33:19;;;;;;;17.70;4.80;;;16.40;72.00;;;;;;4900389;29;20052;-77
2023/01/06 15:35:46;;;;;;;7.93;3.90;;;16.40;71.60;;;;;;4900356;29;20052;-75
2023/01/06 15:38:12;;;;;;;13.27;4.70;;;16.30;71.60;;;;;;4900121;29;20205;-74
2023/01/06 15:40:38;;;;;;;13.48;5.15;;;16.40;72.20;;;;;;4900367;29;20199;-78
2023/01/06 15:43:07;;;;;;;18.90;3.95;;;16.30;72.60;;;;;;4900023;29;20121;-75
2023/01/06 15:45:33;;;;;;;13.02;5.22;;;16.30;73.30;;;;;;4882623;29;20048;-76
2023/01/06 15:48:07;;;;;;;14.90;3.97;;;16.40;74.20;;;;;;4864215;29;20053;-75
2023/01/06 15:50:34;;;;;;;15.98;4.28;;;16.40;74.10;;;;;;4878744;29;20053;-74
2023/01/06 15:53:04;;;;;;;19.35;4.28;;;16.40;74.50;;;;;;4881912;29;20049;-80
2023/01/06 15:55:35;;;;;;;18.30;4.13;;;16.40;74.60;;;;;;4882522;29;20053;-75
2023/01/06 15:58:08;;;;;;;22.90;4.22;;;16.40;75.10;;;;;;4899243;29;20140;-74
2023/01/06 16:00:47;;;;;;;18.65;4.15;;;16.40;75.60;;;;;;4898385;29;20045;-74
2023/01/06 16:03:22;;;;;;;26.48;4.32;;;16.40;76.00;;;;;;4899073;29;20072;-73
2023/01/06 16:05:49;;;;;;;20.73;4.47;;;16.40;76.40;;;;;;4897706;29;20100;-75
2023/01/06 16:08:16;;;;;;;15.15;3.72;;;16.40;76.40;;;;;;4899668;29;20468;-75
2023/01/06 16:10:45;;;;;;;17.50;4.10;;;16.40;76.70;;;;;;4899967;29;20116;-75
2023/01/06 16:13:27;;;;;;;17.10;4.10;;;16.40;76.80;;;;;;4882680;29;20087;-76
2023/01/06 16:16:15;;;;;;;13.95;3.30;;;16.40;77.00;;;;;;4894880;29;20088;-75
2023/01/06 16:18:42;;;;;;;15.27;4.22;;;16.30;77.20;;;;;;4884129;29;20056;-73
2023/01/06 16:21:20;;;;;;;14.95;2.80;;;16.30;76.90;;;;;;4898490;29;20467;-75
2023/01/06 16:24:01;;;;;;;15.27;2.50;;;16.30;77.10;;;;;;4881076;29;20170;-75
2023/01/06 16:26:31;;;;;;;17.27;3.47;;;16.30;77.10;;;;;;4881824;29;20056;-76
2023/01/06 16:28:59;;;;;;;13.85;3.22;;;16.30;76.90;;;;;;4880996;29;20057;-73
2023/01/06 16:31:38;;;;;;;15.73;2.83;;;16.20;76.70;;;;;;4884550;29;20057;-76
2023/01/06 16:34:29;;;;;;;14.20;2.85;;;16.20;76.70;;;;;;4884887;29;20045;-76
2023/01/06 16:36:57;;;;;;;16.50;3.53;;;16.20;76.60;;;;;;4895877;29;20422;-76
2023/01/06 16:39:24;;;;;;;13.80;3.10;;;16.20;76.30;;;;;;4902799;29;20052;-76
2023/01/06 16:41:58;;;;;;;11.50;2.28;;;16.20;76.20;;;;;;4902762;29;20095;-75
2023/01/06 16:44:31;;;;;;;18.92;3.75;;;16.20;76.00;;;;;;4888905;29;20082;-75
2023/01/06 16:47:00;;;;;;;15.23;2.75;;;16.20;75.80;;;;;;4895648;29;20052;-75
2023/01/06 16:49:29;;;;;;;18.48;2.90;;;16.20;75.60;;;;;;4886884;29;20067;-76
2023/01/06 16:51:56;;;;;;;19.17;3.95;;;16.20;75.50;;;;;;4884404;29;20053;-76
2023/01/06 16:54:22;;;;;;;17.33;4.13;;;16.20;75.50;;;;;;4884279;29;20052;-74
2023/01/06 16:56:49;;;;;;;15.50;4.32;;;16.20;75.40;;;;;;4894366;29;20468;-74
2023/01/06 16:59:17;;;;;;;15.32;3.35;;;16.20;75.30;;;;;;4900907;29;20127;-74
2023/01/06 17:01:44;;;;;;;12.05;2.85;;;16.20;74.20;;;;;;4900384;29;20437;-73
2023/01/06 17:04:12;;;;;;;13.68;2.50;;;16.20;72.40;;;;;;4885381;29;20456;-73
2023/01/06 17:06:39;;;;;;;10.52;2.78;;;16.20;70.70;;;;;;4892917;29;20059;-74
2023/01/06 17:09:21;;;;;;;14.90;2.67;;;16.10;68.90;;;;;;4902484;29;20084;-72
2023/01/06 17:11:48;;;;;;;13.93;2.28;;;16.10;67.80;;;;;;4901722;29;20531;-74
2023/01/06 17:14:16;;;;;;;10.02;2.92;;;16.00;67.10;;;;;;4883565;29;20537;-73
2023/01/06 17:16:43;;;;;;;20.35;3.05;;;15.90;66.40;;;;;;4892729;29;20052;-71
2023/01/06 17:19:19;;;;;;;19.27;3.78;;;15.80;66.10;;;;;;4889668;29;20059;-75
2023/01/06 17:21:47;;;;;;;18.50;3.15;;;15.80;65.70;;;;;;4883766;29;20085;-77
2023/01/06 17:24:22;;;;;;;13.68;2.83;;;15.80;65.90;;;;;;4867603;29;20049;-72
2023/01/06 17:26:50;;;;;;;15.30;2.72;;;15.90;66.50;;;;;;4892363;29;20052;-73
2023/01/06 17:29:18;;;;;;;15.18;2.83;;;15.80;66.80;;;;;;4885931;29;20094;-74
2023/01/06 17:31:47;;;;;;;21.08;3.55;;;15.80;67.00;;;;;;4902388;29;20044;-75
2023/01/06 17:34:17;;;;;;;10.80;2.90;;;15.80;67.30;;;;;;4902693;29;20060;-73
2023/01/06 17:36:49;;;;;;;12.23;2.60;;;15.70;67.50;;;;;;4877172;29;20136;-73
2023/01/06 17:39:33;;;;;;;18.75;3.22;;;15.70;67.90;;;;;;4882909;29;20456;-73
2023/01/06 17:42:11;;;;;;;13.85;2.38;;;15.80;68.30;;;;;;4882422;29;20496;-73
2023/01/06 17:44:45;;;;;;;12.15;2.17;;;15.70;68.60;;;;;;4883534;29;20045;-74
2023/01/06 17:47:25;;;;;;;13.27;2.00;;;15.70;68.80;;;;;;4895196;29;20095;-74
2023/01/06 17:50:00;;;;;;;11.88;2.40;;;15.70;68.90;;;;;;4885563;29;20448;-74
2023/01/06 17:52:35;;;;;;;13.63;2.10;;;15.70;69.10;;;;;;4902150;29;20048;-73
2023/01/06 17:57:51;;;;;;;9.50;2.25;;;15.70;69.50;;;;;;4885001;29;20061;-73
2023/01/06 18:00:26;;;;;;;9.90;2.13;;;15.60;69.60;;;;;;4883569;29;20081;-72
2023/01/06 18:02:58;;;;;;;9.10;1.80;;;15.60;69.70;;;;;;4883264;29;20132;-73